Time;durP1;ratioP1;P1;durP2;ratioP2;P2;SDS_P1;SDS_P2;PMS_P1;PMS_P2;Temp;Humidity;BMP_temperature;BMP_pressure;BME280_temperature;BME280_humidity;BME280_pressure;Samples;Min_cycle;Max_cycle;Signal;HPM_P1;HPM_P2
2021/09/18 00:02:54;;;;;;;3.80;3.50;;;14.10;99.90;;;;;;6197310;28;20616;-78
2021/09/18 00:05:57;;;;;;;5.33;3.30;;;14.10;99.90;;;;;;6198467;28;20621;-78
2021/09/18 00:09:00;;;;;;;3.60;3.30;;;14.00;99.90;;;;;;6197340;28;20741;-78
2021/09/18 00:12:02;;;;;;;4.60;3.63;;;14.00;99.90;;;;;;6198442;28;20193;-78
2021/09/18 00:15:05;;;;;;;3.90;3.37;;;13.90;99.90;;;;;;6198350;28;20240;-78
2021/09/18 00:18:08;;;;;;;3.87;3.00;;;13.80;99.90;;;;;;6197429;28;20209;-78
2021/09/18 00:21:13;;;;;;;4.40;3.47;;;13.70;99.90;;;;;;6197226;28;20242;-78
2021/09/18 00:24:16;;;;;;;3.50;3.13;;;13.60;99.90;;;;;;6196663;28;20235;-78
2021/09/18 00:27:19;;;;;;;5.13;3.10;;;13.60;99.90;;;;;;6196788;28;20224;-78
2021/09/18 00:30:21;;;;;;;3.57;3.27;;;13.50;99.90;;;;;;6196888;28;20199;-78
2021/09/18 00:33:23;;;;;;;4.07;3.60;;;13.30;99.90;;;;;;6213271;28;20678;-78
2021/09/18 00:36:26;;;;;;;3.77;3.43;;;13.20;99.90;;;;;;6197832;28;20189;-78
2021/09/18 00:39:28;;;;;;;5.00;3.63;;;13.10;99.90;;;;;;6212948;28;20199;-78
2021/09/18 00:42:31;;;;;;;6.60;3.40;;;13.00;99.90;;;;;;6196672;28;20200;-78
2021/09/18 00:45:34;;;;;;;4.53;3.50;;;12.90;99.90;;;;;;6196415;28;20271;-78
2021/09/18 00:48:37;;;;;;;5.30;3.80;;;12.80;99.90;;;;;;6196305;28;20226;-78
2021/09/18 00:51:40;;;;;;;6.93;4.07;;;12.70;99.90;;;;;;6196169;28;20193;-78
2021/09/18 00:54:43;;;;;;;3.80;3.50;;;12.70;99.90;;;;;;6196563;28;20566;-78
2021/09/18 00:57:46;;;;;;;6.10;3.63;;;12.60;99.90;;;;;;6212538;28;20200;-78
2021/09/18 01:00:48;;;;;;;5.57;2.93;;;12.60;99.90;;;;;;6212812;28;20201;-79
2021/09/18 01:03:51;;;;;;;6.50;3.53;;;12.50;99.90;;;;;;6196446;28;20295;-78
2021/09/18 01:06:53;;;;;;;3.73;3.43;;;12.40;99.90;;;;;;6197902;28;20222;-78
2021/09/18 01:09:56;;;;;;;4.13;3.80;;;12.40;99.90;;;;;;6196303;28;20683;-78
2021/09/18 01:13:04;;;;;;;4.30;3.90;;;12.30;99.90;;;;;;6196270;28;20294;-78
2021/09/18 01:16:06;;;;;;;5.33;4.13;;;12.30;99.90;;;;;;6196170;28;20223;-78
2021/09/18 01:19:09;;;;;;;5.40;4.13;;;12.40;99.90;;;;;;6195980;28;20335;-78
2021/09/18 01:22:14;;;;;;;4.47;3.73;;;12.30;99.90;;;;;;6195944;28;20204;-78
2021/09/18 01:25:16;;;;;;;4.93;4.43;;;12.30;99.90;;;;;;6195527;28;20234;-78
2021/09/18 01:28:19;;;;;;;5.50;4.00;;;12.30;99.90;;;;;;6196262;28;20215;-78
2021/09/18 01:31:22;;;;;;;5.10;4.60;;;12.20;99.90;;;;;;6197279;28;20191;-78
2021/09/18 01:34:25;;;;;;;4.77;4.27;;;12.20;99.90;;;;;;6197209;28;20560;-78
2021/09/18 01:37:27;;;;;;;4.20;3.80;;;12.20;99.90;;;;;;6200963;28;20208;-78
2021/09/18 01:40:34;;;;;;;4.67;3.90;;;12.10;99.90;;;;;;6202063;28;20324;-78
2021/09/18 01:43:36;;;;;;;6.23;3.80;;;12.10;99.90;;;;;;6201712;28;20183;-78
2021/09/18 01:46:39;;;;;;;4.57;3.77;;;12.10;99.90;;;;;;6216686;28;20233;-78
2021/09/18 01:49:42;;;;;;;4.10;3.70;;;12.10;99.90;;;;;;6201507;28;20567;-78
2021/09/18 01:52:47;;;;;;;4.67;4.27;;;12.10;99.90;;;;;;6199550;28;20226;-78
2021/09/18 01:55:52;;;;;;;5.13;4.23;;;12.10;99.90;;;;;;6184343;28;20208;-78
2021/09/18 01:58:54;;;;;;;4.20;3.80;;;12.10;99.90;;;;;;6200066;28;20195;-78
2021/09/18 02:01:56;;;;;;;5.87;3.90;;;12.10;99.90;;;;;;6201514;28;20677;-78
2021/09/18 02:04:59;;;;;;;4.57;4.10;;;12.10;99.90;;;;;;6216175;28;20299;-78
2021/09/18 02:08:03;;;;;;;4.90;4.20;;;12.00;99.90;;;;;;6201315;28;20256;-79
2021/09/18 02:11:05;;;;;;;6.23;4.17;;;12.00;99.90;;;;;;6199822;28;20298;-78
2021/09/18 02:14:08;;;;;;;7.40;4.50;;;12.00;99.90;;;;;;6199533;28;20222;-78
2021/09/18 02:17:10;;;;;;;5.00;4.53;;;12.00;99.90;;;;;;6200129;28;20211;-78
2021/09/18 02:20:16;;;;;;;4.23;3.93;;;12.00;99.90;;;;;;6199436;28;20210;-78
2021/09/18 02:23:18;;;;;;;4.10;3.70;;;12.00;99.90;;;;;;6183500;28;20226;-78
2021/09/18 02:26:21;;;;;;;4.37;3.97;;;12.00;99.90;;;;;;6200753;28;20201;-78
2021/09/18 02:29:24;;;;;;;4.83;4.23;;;12.00;99.90;;;;;;6200974;28;20654;-78
2021/09/18 02:32:27;;;;;;;8.13;4.80;;;12.10;99.90;;;;;;6199624;28;20548;-78
2021/09/18 02:35:32;;;;;;;6.13;4.30;;;12.00;99.90;;;;;;6199608;28;20298;-78
2021/09/18 02:38:35;;;;;;;4.30;3.90;;;12.10;99.90;;;;;;6200708;28;20200;-78
2021/09/18 02:41:38;;;;;;;4.40;4.00;;;12.10;99.90;;;;;;6191500;28;20205;-78
2021/09/18 02:44:40;;;;;;;4.83;4.23;;;12.10;99.90;;;;;;6199398;28;20191;-78
2021/09/18 02:47:43;;;;;;;5.27;4.53;;;12.10;99.90;;;;;;6197556;28;20230;-78
2021/09/18 02:50:47;;;;;;;4.80;4.40;;;12.20;99.90;;;;;;6183172;28;20203;-78
2021/09/18 02:54:00;;;;;;;6.70;4.70;;;12.20;99.90;;;;;;6200330;28;20201;-78
2021/09/18 02:57:02;;;;;;;4.87;4.10;;;12.30;99.90;;;;;;6158868;28;20626;-78
2021/09/18 03:00:13;;;;;;;8.90;4.80;;;12.30;99.90;;;;;;6197121;28;20216;-78
2021/09/18 03:03:16;;;;;;;4.60;4.20;;;12.30;99.90;;;;;;6199910;28;20176;-78
2021/09/18 03:06:19;;;;;;;5.07;4.60;;;12.30;99.90;;;;;;6214844;28;20212;-78
2021/09/18 03:09:22;;;;;;;5.63;5.10;;;12.30;99.90;;;;;;6182511;28;20288;-78
2021/09/18 03:12:24;;;;;;;6.20;5.00;;;12.30;99.90;;;;;;6198565;28;20196;-78
2021/09/18 03:15:26;;;;;;;9.57;4.80;;;12.30;99.90;;;;;;6198324;28;20553;-78
2021/09/18 03:18:29;;;;;;;5.00;3.90;;;12.30;99.90;;;;;;6198575;28;20232;-78
2021/09/18 03:21:31;;;;;;;6.17;4.50;;;12.30;99.90;;;;;;6189422;28;20571;-78
2021/09/18 03:24:34;;;;;;;4.73;4.33;;;12.40;99.90;;;;;;6198579;28;20240;-78
2021/09/18 03:27:36;;;;;;;6.07;4.30;;;12.40;99.90;;;;;;6198351;28;20273;-78
2021/09/18 03:30:39;;;;;;;5.80;4.10;;;12.40;99.90;;;;;;6179440;28;20192;-78
2021/09/18 03:33:41;;;;;;;4.83;4.27;;;12.40;99.90;;;;;;6189688;28;20191;-78
2021/09/18 03:36:44;;;;;;;4.40;4.00;;;12.50;99.90;;;;;;6199160;28;20212;-78
2021/09/18 03:39:46;;;;;;;4.63;4.13;;;12.50;99.90;;;;;;6197932;28;20204;-79
2021/09/18 03:42:49;;;;;;;6.03;4.90;;;12.50;99.90;;;;;;6197809;28;20550;-78
2021/09/18 03:45:52;;;;;;;5.73;5.13;;;12.50;99.90;;;;;;6198989;28;20564;-78
2021/09/18 03:48:55;;;;;;;8.60;5.63;;;12.60;99.90;;;;;;6198932;28;20524;-78
2021/09/18 03:51:59;;;;;;;5.97;4.50;;;12.70;99.90;;;;;;6209684;28;20589;-78
2021/09/18 03:55:04;;;;;;;4.27;3.93;;;12.70;99.90;;;;;;6197657;28;20304;-78
2021/09/18 03:58:07;;;;;;;5.90;4.47;;;12.80;99.90;;;;;;6198208;28;20196;-78
2021/09/18 04:01:09;;;;;;;6.97;4.20;;;12.90;99.90;;;;;;6181208;28;20287;-78
2021/09/18 04:04:12;;;;;;;6.57;5.00;;;12.90;99.90;;;;;;6197296;28;20231;-78
2021/09/18 04:07:14;;;;;;;6.57;4.77;;;12.90;99.90;;;;;;6213576;28;20221;-78
2021/09/18 04:10:17;;;;;;;5.80;4.40;;;13.00;99.90;;;;;;6213482;28;20212;-78
2021/09/18 04:13:19;;;;;;;4.80;4.37;;;13.00;99.90;;;;;;6198523;28;20648;-78
2021/09/18 04:16:22;;;;;;;4.93;4.43;;;13.00;99.90;;;;;;6197011;28;20208;-79
2021/09/18 04:19:24;;;;;;;6.63;4.60;;;13.00;99.90;;;;;;6197295;28;20288;-78
2021/09/18 04:22:27;;;;;;;5.13;4.30;;;13.00;99.90;;;;;;6197321;28;20195;-78
2021/09/18 04:25:29;;;;;;;5.90;5.00;;;13.00;99.90;;;;;;6196932;28;20232;-78
2021/09/18 04:28:31;;;;;;;4.80;4.40;;;13.00;99.90;;;;;;6196659;28;20205;-78
2021/09/18 04:31:34;;;;;;;7.03;5.07;;;13.10;99.90;;;;;;6196805;28;20665;-78
2021/09/18 04:34:36;;;;;;;5.33;4.60;;;13.10;99.90;;;;;;6196592;28;20668;-78
2021/09/18 04:37:40;;;;;;;5.10;4.60;;;13.10;99.90;;;;;;6180772;28;20686;-78
2021/09/18 04:40:42;;;;;;;6.40;5.80;;;13.10;99.90;;;;;;6196470;28;20205;-78
2021/09/18 04:43:45;;;;;;;6.17;5.23;;;13.20;99.90;;;;;;6196552;28;20208;-78
2021/09/18 04:46:47;;;;;;;6.30;5.70;;;13.20;99.90;;;;;;6196034;28;20220;-78
2021/09/18 04:49:50;;;;;;;5.07;4.57;;;13.30;99.90;;;;;;6178791;28;20295;-78
2021/09/18 04:52:52;;;;;;;6.17;5.53;;;13.30;99.90;;;;;;6180991;28;20204;-78
2021/09/18 04:55:55;;;;;;;6.07;4.87;;;13.30;99.90;;;;;;6196336;28;20656;-78
2021/09/18 04:59:02;;;;;;;7.30;4.67;;;13.30;99.90;;;;;;6196353;28;20182;-78
2021/09/18 05:02:05;;;;;;;6.27;5.60;;;13.40;99.90;;;;;;6197529;28;20210;-78
2021/09/18 05:05:08;;;;;;;6.83;5.57;;;13.40;99.90;;;;;;6212488;28;20530;-78
2021/09/18 05:08:10;;;;;;;7.40;6.13;;;13.50;99.90;;;;;;6196099;28;20213;-78
2021/09/18 05:11:12;;;;;;;7.37;6.10;;;13.50;99.90;;;;;;6199101;28;20198;-78
2021/09/18 05:14:17;;;;;;;5.87;5.27;;;13.60;99.90;;;;;;6200813;28;20200;-78
2021/09/18 05:17:19;;;;;;;5.87;5.33;;;13.70;99.90;;;;;;6201736;28;20279;-78
2021/09/18 05:20:22;;;;;;;8.03;4.90;;;13.70;99.90;;;;;;6216935;28;20213;-78
2021/09/18 05:23:25;;;;;;;4.60;4.10;;;13.70;99.90;;;;;;6200308;28;20216;-78
2021/09/18 05:26:27;;;;;;;7.83;6.30;;;13.80;99.90;;;;;;6199935;28;20514;-78
2021/09/18 05:29:29;;;;;;;5.53;5.07;;;13.80;99.90;;;;;;6201827;28;20560;-78
2021/09/18 05:32:32;;;;;;;6.10;5.30;;;13.80;99.90;;;;;;6201593;28;20199;-78
2021/09/18 05:35:35;;;;;;;5.23;4.73;;;13.90;99.90;;;;;;6184167;28;20565;-78
2021/09/18 05:38:37;;;;;;;6.20;5.60;;;13.90;99.90;;;;;;6201572;28;20682;-79
2021/09/18 05:41:40;;;;;;;7.43;6.00;;;14.00;99.90;;;;;;6216520;28;20611;-78
2021/09/18 05:44:43;;;;;;;5.97;5.37;;;14.10;99.90;;;;;;6200115;28;20204;-78
2021/09/18 05:47:46;;;;;;;8.23;6.00;;;14.20;99.90;;;;;;6199991;28;20292;-78
2021/09/18 05:50:48;;;;;;;6.83;5.13;;;14.30;99.90;;;;;;6199877;28;20197;-78
2021/09/18 05:53:51;;;;;;;5.30;4.67;;;14.30;99.90;;;;;;6201023;28;20242;-78
2021/09/18 05:56:54;;;;;;;7.83;4.57;;;14.40;99.90;;;;;;6216254;28;20216;-78
2021/09/18 05:59:57;;;;;;;6.53;5.93;;;14.40;99.90;;;;;;6199794;28;20228;-78
2021/09/18 06:03:00;;;;;;;6.33;4.77;;;14.50;99.90;;;;;;6199929;28;20668;-78
2021/09/18 06:06:03;;;;;;;5.50;5.00;;;14.50;99.90;;;;;;6215902;28;20578;-78
2021/09/18 06:09:06;;;;;;;5.37;4.83;;;14.60;99.90;;;;;;6180233;28;20246;-78
2021/09/18 06:12:09;;;;;;;6.70;6.03;;;14.60;99.90;;;;;;6191979;28;20560;-78
2021/09/18 06:15:12;;;;;;;4.80;4.30;;;14.60;99.90;;;;;;6199591;28;20197;-78
2021/09/18 06:18:14;;;;;;;5.10;4.60;;;14.60;99.90;;;;;;6214589;28;20194;-78
2021/09/18 06:21:16;;;;;;;5.80;5.20;;;14.60;99.90;;;;;;6199047;28;20205;-79
2021/09/18 06:24:19;;;;;;;5.20;4.57;;;14.60;99.90;;;;;;6199063;28;20728;-78
2021/09/18 06:27:21;;;;;;;5.33;4.83;;;14.70;99.90;;;;;;6200632;28;20545;-78
2021/09/18 06:30:24;;;;;;;5.47;4.77;;;14.70;99.90;;;;;;6215407;28;20212;-78
2021/09/18 06:33:26;;;;;;;4.37;4.03;;;14.80;99.90;;;;;;6215495;28;20193;-78
2021/09/18 06:36:29;;;;;;;5.90;5.40;;;14.90;99.90;;;;;;6199113;28;20206;-78
2021/09/18 06:39:33;;;;;;;5.27;4.53;;;14.90;99.90;;;;;;6199023;28;20224;-79
2021/09/18 06:42:35;;;;;;;4.50;4.10;;;15.00;99.90;;;;;;6199458;28;20201;-78
2021/09/18 06:45:38;;;;;;;5.67;4.43;;;15.00;99.90;;;;;;6198599;28;20208;-78
2021/09/18 06:48:41;;;;;;;6.40;5.27;;;15.00;99.90;;;;;;6200284;28;20284;-78
2021/09/18 06:51:44;;;;;;;4.53;4.13;;;15.10;99.90;;;;;;6207756;28;20213;-78
2021/09/18 06:54:46;;;;;;;5.47;4.43;;;15.30;99.90;;;;;;6198800;28;20667;-78
2021/09/18 06:57:49;;;;;;;5.70;4.80;;;15.40;99.90;;;;;;6199892;28;20201;-78
2021/09/18 07:00:51;;;;;;;5.60;4.10;;;15.50;99.90;;;;;;6198486;28;20212;-78
2021/09/18 07:03:54;;;;;;;5.63;4.73;;;15.50;99.90;;;;;;6198154;28;20573;-78
2021/09/18 07:06:58;;;;;;;6.60;5.17;;;15.60;99.90;;;;;;6182026;28;20194;-79
2021/09/18 07:10:00;;;;;;;5.23;4.70;;;15.70;99.90;;;;;;6198115;28;20205;-78
2021/09/18 07:13:02;;;;;;;8.50;5.53;;;15.70;99.90;;;;;;6198240;28;20201;-78
2021/09/18 07:16:05;;;;;;;6.40;4.57;;;15.80;99.90;;;;;;6199045;28;20728;-78
2021/09/18 07:19:08;;;;;;;5.77;5.17;;;15.90;99.90;;;;;;6214310;28;20644;-79
2021/09/18 07:22:10;;;;;;;7.27;4.70;;;16.00;99.90;;;;;;6198086;28;20205;-78
2021/09/18 07:25:13;;;;;;;5.27;4.83;;;16.00;99.90;;;;;;6198865;28;20233;-78
2021/09/18 07:28:16;;;;;;;4.60;4.20;;;16.10;99.90;;;;;;6197734;28;20220;-78
2021/09/18 07:31:18;;;;;;;5.27;4.17;;;16.20;99.90;;;;;;6197539;28;20734;-78
2021/09/18 07:34:22;;;;;;;5.37;4.40;;;16.30;99.90;;;;;;6213205;28;20201;-79
2021/09/18 07:37:24;;;;;;;5.40;4.90;;;16.40;99.90;;;;;;6198579;28;20198;-78
2021/09/18 07:40:26;;;;;;;4.97;4.57;;;16.40;99.90;;;;;;6198788;28;20208;-78
2021/09/18 07:43:29;;;;;;;5.07;4.57;;;16.50;99.90;;;;;;6213755;28;20664;-79
2021/09/18 07:46:32;;;;;;;5.20;4.70;;;16.50;99.90;;;;;;6213685;28;20190;-79
2021/09/18 07:49:34;;;;;;;6.17;4.80;;;16.60;99.90;;;;;;6197312;28;20355;-79
2021/09/18 07:52:37;;;;;;;5.50;4.40;;;16.60;99.90;;;;;;6213400;28;20194;-79
2021/09/18 07:55:40;;;;;;;4.00;3.70;;;16.80;99.90;;;;;;6213692;28;20677;-79
2021/09/18 07:58:49;;;;;;;5.03;4.53;;;16.90;99.90;;;;;;6198422;28;20196;-79
2021/09/18 08:01:51;;;;;;;4.20;3.80;;;17.00;99.90;;;;;;6198537;28;20657;-79
2021/09/18 08:04:54;;;;;;;4.53;4.07;;;17.20;99.90;;;;;;6197034;28;20194;-79
2021/09/18 08:07:57;;;;;;;5.00;3.73;;;17.30;99.90;;;;;;6198071;28;20291;-79
2021/09/18 08:10:59;;;;;;;4.83;4.37;;;17.40;99.90;;;;;;6213574;28;20669;-79
2021/09/18 08:14:02;;;;;;;4.80;4.30;;;17.60;99.90;;;;;;6199322;28;20236;-79
2021/09/18 08:17:05;;;;;;;10.60;4.63;;;17.60;99.90;;;;;;6179373;28;20197;-79
2021/09/18 08:20:09;;;;;;;4.27;3.87;;;17.60;99.90;;;;;;6198354;28;20197;-79
2021/09/18 08:23:11;;;;;;;4.27;3.80;;;17.60;99.90;;;;;;6199004;28;20221;-78
2021/09/18 08:26:14;;;;;;;4.37;3.40;;;17.50;99.90;;;;;;6198713;28;20241;-79
2021/09/18 08:29:16;;;;;;;4.50;3.57;;;17.50;99.90;;;;;;6215821;28;20250;-79
2021/09/18 08:32:18;;;;;;;3.60;3.30;;;17.50;99.90;;;;;;6197507;28;20687;-79
2021/09/18 08:35:21;;;;;;;3.27;2.97;;;17.60;99.90;;;;;;6212888;28;20268;-79
2021/09/18 08:38:24;;;;;;;4.43;4.03;;;17.60;99.90;;;;;;6198355;28;20201;-79
2021/09/18 08:41:29;;;;;;;4.30;3.30;;;17.80;99.90;;;;;;6209052;28;20657;-79
2021/09/18 08:44:34;;;;;;;3.77;3.20;;;17.80;99.90;;;;;;6210784;28;20265;-78
2021/09/18 08:47:37;;;;;;;2.70;2.50;;;18.10;99.90;;;;;;6209600;28;20221;-79
2021/09/18 08:50:40;;;;;;;4.73;2.60;;;18.30;99.90;;;;;;6213761;28;20245;-79
2021/09/18 08:53:43;;;;;;;2.87;2.57;;;18.50;99.90;;;;;;6218559;28;20197;-79
2021/09/18 08:56:46;;;;;;;4.10;3.07;;;18.70;99.90;;;;;;6214474;28;20221;-79
2021/09/18 08:59:48;;;;;;;3.37;2.50;;;18.80;99.90;;;;;;6197096;28;20189;-79
2021/09/18 09:02:55;;;;;;;5.40;3.67;;;19.00;99.90;;;;;;6212080;28;20196;-79
2021/09/18 09:06:02;;;;;;;3.40;3.10;;;19.10;99.90;;;;;;6212227;28;20347;-79
2021/09/18 09:09:05;;;;;;;5.97;3.83;;;19.30;99.90;;;;;;6195774;28;20221;-79
2021/09/18 09:12:25;;;;;;;4.97;3.40;;;19.40;99.90;;;;;;6212098;28;20201;-79
2021/09/18 09:15:29;;;;;;;4.10;2.80;;;19.60;99.90;;;;;;6197269;28;20185;-79
2021/09/18 09:18:39;;;;;;;4.50;2.27;;;19.80;99.90;;;;;;6195894;28;20201;-79
2021/09/18 09:21:53;;;;;;;2.43;2.20;;;20.00;99.90;;;;;;6197040;28;20205;-79
2021/09/18 09:24:56;;;;;;;2.30;2.10;;;20.20;99.90;;;;;;6195645;28;20248;-79
2021/09/18 09:28:21;;;;;;;2.27;2.07;;;20.50;99.90;;;;;;6211749;28;20579;-79
2021/09/18 09:31:28;;;;;;;5.37;2.83;;;20.70;99.90;;;;;;6195837;28;20201;-79
2021/09/18 09:34:35;;;;;;;4.10;2.17;;;20.40;98.90;;;;;;6195724;28;20202;-79
2021/09/18 09:37:39;;;;;;;2.70;2.50;;;20.20;99.30;;;;;;6195809;28;20539;-79
2021/09/18 09:40:45;;;;;;;3.37;3.03;;;20.10;99.00;;;;;;6195414;28;20189;-79
2021/09/18 09:43:49;;;;;;;4.83;2.90;;;19.90;99.20;;;;;;6191500;28;20277;-79
2021/09/18 09:47:09;;;;;;;3.73;3.40;;;19.50;99.60;;;;;;6198906;28;20596;-79
2021/09/18 09:50:14;;;;;;;3.37;3.07;;;19.30;99.80;;;;;;6191144;28;20214;-79
2021/09/18 09:53:25;;;;;;;4.00;2.60;;;19.30;99.90;;;;;;6189490;28;20840;-79
2021/09/18 09:56:27;;;;;;;2.57;2.13;;;19.60;99.90;;;;;;6183028;28;20198;-79
2021/09/18 09:59:30;;;;;;;2.83;2.00;;;20.00;99.90;;;;;;6193787;28;20574;-79
2021/09/18 10:02:34;;;;;;;3.33;2.60;;;20.30;99.50;;;;;;6191348;28;20193;-79
2021/09/18 10:05:38;;;;;;;3.23;2.97;;;20.40;99.90;;;;;;6198448;28;20312;-79
2021/09/18 10:08:45;;;;;;;4.10;2.93;;;20.10;99.90;;;;;;6194066;28;20201;-79
2021/09/18 10:11:48;;;;;;;4.43;3.13;;;19.80;99.90;;;;;;6191160;28;20218;-79
2021/09/18 10:14:55;;;;;;;5.00;3.73;;;19.60;99.90;;;;;;6199338;28;20194;-79
2021/09/18 10:18:00;;;;;;;3.33;3.03;;;19.30;99.90;;;;;;6199401;28;20206;-78
2021/09/18 10:24:07;;;;;;;4.97;3.40;;;19.20;99.90;;;;;;6196969;28;20247;-79
2021/09/18 10:27:22;;;;;;;4.17;3.73;;;19.30;99.90;;;;;;6195656;28;20201;-79
2021/09/18 10:30:37;;;;;;;3.90;3.00;;;19.30;99.90;;;;;;6196558;28;20573;-79
2021/09/18 10:33:46;;;;;;;5.77;4.13;;;19.40;99.90;;;;;;6170267;28;20670;-79
2021/09/18 10:36:51;;;;;;;4.77;3.90;;;19.20;99.90;;;;;;6202479;28;20194;-79
2021/09/18 10:40:14;;;;;;;5.40;4.30;;;19.20;99.90;;;;;;6196437;28;20194;-79
2021/09/18 10:43:41;;;;;;;4.53;4.13;;;19.20;99.90;;;;;;6178597;28;20225;-79
2021/09/18 10:47:01;;;;;;;4.00;3.40;;;19.10;99.90;;;;;;6183063;28;20193;-79
2021/09/18 10:50:27;;;;;;;3.30;3.00;;;19.40;99.90;;;;;;6178977;28;20201;-78
2021/09/18 10:53:30;;;;;;;5.03;3.53;;;19.50;99.90;;;;;;6188693;28;20193;-79
2021/09/18 10:56:54;;;;;;;4.73;4.00;;;19.60;99.90;;;;;;6190416;28;20201;-78
2021/09/18 10:59:56;;;;;;;4.90;3.30;;;19.80;99.70;;;;;;6190553;28;20277;-79
2021/09/18 11:03:00;;;;;;;3.33;3.03;;;20.00;99.40;;;;;;6178417;28;20343;-79
2021/09/18 11:06:04;;;;;;;4.23;3.83;;;20.50;98.70;;;;;;6190482;28;20194;-79
2021/09/18 11:09:07;;;;;;;3.53;2.60;;;21.00;95.80;;;;;;6195716;28;20208;-79
2021/09/18 11:12:14;;;;;;;3.00;2.70;;;21.50;97.90;;;;;;6194732;28;20194;-79
2021/09/18 11:15:17;;;;;;;3.67;2.93;;;22.10;95.20;;;;;;6181759;28;20682;-79
2021/09/18 11:18:40;;;;;;;2.70;2.50;;;22.40;93.00;;;;;;6174246;28;20197;-79
2021/09/18 11:21:45;;;;;;;3.20;2.70;;;22.30;93.60;;;;;;6209127;28;20194;-79
2021/09/18 11:24:47;;;;;;;2.20;2.00;;;22.50;91.80;;;;;;6176260;28;20296;-79
2021/09/18 11:28:05;;;;;;;2.90;1.67;;;23.00;93.20;;;;;;6196353;28;20626;-79
2021/09/18 11:31:09;;;;;;;2.20;2.00;;;23.00;92.10;;;;;;6195302;28;20190;-79
2021/09/18 11:34:14;;;;;;;2.87;2.30;;;22.60;90.40;;;;;;6193688;28;20189;-79
2021/09/18 11:37:27;;;;;;;2.17;1.97;;;22.10;90.70;;;;;;6196490;28;20205;-78
2021/09/18 11:40:31;;;;;;;3.90;2.10;;;21.50;90.90;;;;;;6197499;28;20276;-79
2021/09/18 11:43:33;;;;;;;1.87;1.77;;;21.10;92.20;;;;;;6197491;28;20186;-79
2021/09/18 11:46:36;;;;;;;3.60;1.70;;;20.60;93.50;;;;;;6198709;28;20224;-79
2021/09/18 11:49:39;;;;;;;2.47;2.27;;;20.50;94.40;;;;;;6181098;28;20613;-79
2021/09/18 11:52:42;;;;;;;2.30;2.10;;;20.40;95.30;;;;;;6198362;28;20204;-79
2021/09/18 11:55:47;;;;;;;5.90;2.63;;;20.20;96.30;;;;;;6197189;28;20208;-79
2021/09/18 11:58:49;;;;;;;2.53;2.33;;;20.10;96.50;;;;;;6197401;28;20181;-79
2021/09/18 12:01:52;;;;;;;3.20;2.90;;;20.00;97.00;;;;;;6197237;28;20201;-78
2021/09/18 12:04:54;;;;;;;3.70;3.40;;;19.80;96.90;;;;;;6213269;28;20260;-79
2021/09/18 12:07:57;;;;;;;4.10;3.03;;;19.70;97.70;;;;;;6181119;28;20198;-78
2021/09/18 12:11:04;;;;;;;3.67;3.30;;;19.50;98.70;;;;;;6212970;28;20227;-78
2021/09/18 12:14:06;;;;;;;3.47;2.63;;;19.30;99.50;;;;;;6213129;28;20186;-78
2021/09/18 12:17:13;;;;;;;3.40;2.50;;;19.10;99.90;;;;;;6196830;28;20248;-79
2021/09/18 12:20:16;;;;;;;4.57;3.20;;;19.00;99.90;;;;;;6196341;28;20211;-78
2021/09/18 12:23:19;;;;;;;3.33;3.03;;;18.90;99.90;;;;;;6180292;28;20213;-78
2021/09/18 12:26:21;;;;;;;3.80;3.50;;;18.80;99.90;;;;;;6212615;28;20649;-78
2021/09/18 12:29:24;;;;;;;4.23;3.80;;;18.60;99.90;;;;;;6212649;28;20590;-78
2021/09/18 12:32:28;;;;;;;3.87;3.30;;;18.10;99.90;;;;;;6212521;28;20696;-78
2021/09/18 12:35:50;;;;;;;3.93;3.20;;;17.70;99.90;;;;;;6197683;28;20255;-78
2021/09/18 12:38:56;;;;;;;3.23;2.93;;;17.40;99.90;;;;;;6196297;28;20236;-79
2021/09/18 12:42:05;;;;;;;3.03;2.80;;;16.90;99.90;;;;;;6196303;28;20190;-78
2021/09/18 12:45:26;;;;;;;3.07;2.77;;;16.60;99.90;;;;;;6196590;28;20210;-78
2021/09/18 12:48:28;;;;;;;3.00;2.67;;;16.30;99.90;;;;;;6183400;28;20573;-78
2021/09/18 12:51:37;;;;;;;3.00;2.63;;;16.10;99.90;;;;;;6187176;28;20599;-78
2021/09/18 12:54:45;;;;;;;2.93;2.63;;;16.00;99.90;;;;;;6196114;28;20537;-78
2021/09/18 12:57:47;;;;;;;3.10;2.87;;;16.00;99.90;;;;;;6196043;28;20193;-78
2021/09/18 13:01:03;;;;;;;4.97;2.83;;;16.00;99.90;;;;;;6212401;28;20193;-78
2021/09/18 13:04:10;;;;;;;4.23;3.00;;;16.00;99.90;;;;;;6195849;28;20232;-78
2021/09/18 13:07:13;;;;;;;3.27;2.50;;;15.80;99.90;;;;;;6212377;28;20177;-78
2021/09/18 13:10:25;;;;;;;2.57;2.37;;;15.70;99.90;;;;;;6179805;28;20217;-79
2021/09/18 13:13:36;;;;;;;3.37;2.67;;;15.60;99.90;;;;;;6175854;28;20744;-79
2021/09/18 13:16:51;;;;;;;3.20;2.90;;;15.50;99.90;;;;;;6172218;28;20668;-79
2021/09/18 13:20:06;;;;;;;3.40;3.10;;;15.40;99.90;;;;;;6189155;28;20213;-80
2021/09/18 13:23:11;;;;;;;4.03;3.10;;;15.30;99.90;;;;;;6196570;28;20228;-79
2021/09/18 13:26:13;;;;;;;3.60;3.30;;;15.20;99.90;;;;;;6195802;28;20229;-79
2021/09/18 13:29:21;;;;;;;3.53;3.23;;;15.20;99.90;;;;;;6172200;28;20222;-79
2021/09/18 13:32:26;;;;;;;3.10;2.80;;;15.10;99.90;;;;;;6183006;28;20186;-79
2021/09/18 13:35:28;;;;;;;3.53;3.23;;;15.10;99.90;;;;;;6203980;28;20209;-79
2021/09/18 13:38:31;;;;;;;3.70;3.40;;;15.00;99.90;;;;;;6201588;28;20562;-79
2021/09/18 13:41:33;;;;;;;5.43;3.97;;;14.90;99.90;;;;;;6200389;28;20200;-79
2021/09/18 13:44:36;;;;;;;4.47;4.13;;;14.80;99.90;;;;;;6200340;28;20216;-78
2021/09/18 13:47:38;;;;;;;4.57;3.93;;;14.70;99.90;;;;;;6216517;28;20244;-79
2021/09/18 13:50:42;;;;;;;4.10;3.70;;;14.70;99.90;;;;;;6200180;28;20205;-78
2021/09/18 13:53:44;;;;;;;3.63;3.33;;;14.50;99.90;;;;;;6200207;28;20185;-78
2021/09/18 13:56:46;;;;;;;4.23;3.83;;;14.50;99.90;;;;;;6200319;28;20202;-78
2021/09/18 13:59:49;;;;;;;4.13;3.73;;;14.50;99.90;;;;;;6200100;28;20212;-79
2021/09/18 14:02:51;;;;;;;4.50;3.87;;;14.50;99.90;;;;;;6216178;28;20268;-78
2021/09/18 14:05:54;;;;;;;4.20;3.80;;;14.50;99.90;;;;;;6201592;28;20608;-79
2021/09/18 14:08:57;;;;;;;4.23;3.83;;;14.50;99.90;;;;;;6199805;28;20612;-78
2021/09/18 14:12:00;;;;;;;3.90;3.20;;;14.50;99.90;;;;;;6216123;28;20186;-78
2021/09/18 14:15:03;;;;;;;4.07;3.47;;;14.50;99.90;;;;;;6199460;28;20576;-78
2021/09/18 14:18:07;;;;;;;4.17;3.80;;;14.60;99.90;;;;;;6199297;28;20567;-78
2021/09/18 14:21:10;;;;;;;3.90;3.60;;;14.70;99.90;;;;;;6199454;28;20668;-78
2021/09/18 14:24:13;;;;;;;4.97;3.80;;;14.70;99.90;;;;;;6198610;28;20261;-78
2021/09/18 14:27:15;;;;;;;3.80;3.50;;;14.70;99.90;;;;;;6198067;28;20205;-78
2021/09/18 14:30:18;;;;;;;4.43;4.03;;;14.80;99.90;;;;;;6181675;28;20217;-78
2021/09/18 14:33:21;;;;;;;3.87;3.57;;;14.80;99.90;;;;;;6199103;28;20181;-78
2021/09/18 14:36:23;;;;;;;4.47;4.07;;;14.80;99.90;;;;;;6197869;28;20198;-78
2021/09/18 14:39:26;;;;;;;4.53;3.50;;;14.90;99.90;;;;;;6197883;28;20205;-78
2021/09/18 14:42:29;;;;;;;3.63;3.20;;;15.00;99.90;;;;;;6198813;28;20549;-78
2021/09/18 14:45:31;;;;;;;4.10;3.70;;;15.00;99.90;;;;;;6199056;28;20557;-78
2021/09/18 14:48:34;;;;;;;4.87;4.23;;;15.10;99.90;;;;;;6197507;28;20683;-78
2021/09/18 14:51:37;;;;;;;3.33;3.13;;;15.10;99.90;;;;;;6190888;28;20272;-78
2021/09/18 14:54:40;;;;;;;4.43;3.83;;;15.00;99.90;;;;;;6197581;28;20517;-78
2021/09/18 14:57:43;;;;;;;4.00;3.70;;;15.00;99.90;;;;;;6198607;28;20632;-78
2021/09/18 15:00:45;;;;;;;5.13;3.80;;;15.00;99.90;;;;;;6181283;28;20208;-78
2021/09/18 15:03:48;;;;;;;4.17;3.77;;;15.00;99.90;;;;;;6197173;28;20216;-78
2021/09/18 15:06:51;;;;;;;4.37;3.97;;;15.00;99.90;;;;;;6180917;28;20203;-78
2021/09/18 15:09:54;;;;;;;4.20;3.80;;;15.10;99.90;;;;;;6197005;28;20228;-78
2021/09/18 15:12:57;;;;;;;4.43;4.03;;;15.10;99.90;;;;;;6213368;28;20205;-78
2021/09/18 15:16:00;;;;;;;3.80;3.47;;;15.10;99.90;;;;;;6205255;28;20222;-78
2021/09/18 15:19:03;;;;;;;4.67;3.90;;;15.10;99.90;;;;;;6180869;28;20206;-78
2021/09/18 15:22:05;;;;;;;3.73;3.43;;;15.10;99.90;;;;;;6177402;28;20417;-78
2021/09/18 15:26:30;;;;;;;3.33;3.03;;;15.10;99.90;;;;;;6340749;27;20347;-71
2021/09/18 15:29:33;;;;;;;3.60;3.30;;;15.10;99.90;;;;;;6339577;28;20219;-71
2021/09/18 15:32:36;;;;;;;4.17;3.77;;;15.10;99.90;;;;;;6340619;28;20660;-71
2021/09/18 15:35:39;;;;;;;4.10;3.50;;;15.10;99.90;;;;;;6340631;28;20182;-71
2021/09/18 15:38:43;;;;;;;5.57;3.63;;;15.00;99.90;;;;;;6340441;28;20672;-71
2021/09/18 15:41:47;;;;;;;3.83;3.53;;;15.00;99.90;;;;;;6339593;28;20204;-71
2021/09/18 15:44:49;;;;;;;4.10;3.70;;;15.00;99.90;;;;;;6340107;28;20209;-71
2021/09/18 15:47:51;;;;;;;4.43;4.00;;;15.00;99.90;;;;;;6340378;28;20196;-71
2021/09/18 15:50:53;;;;;;;4.77;4.37;;;15.10;99.90;;;;;;6330105;28;20243;-71
2021/09/18 15:53:56;;;;;;;4.23;3.83;;;15.10;99.90;;;;;;6326734;28;20185;-71
2021/09/18 15:56:58;;;;;;;4.17;3.77;;;15.10;99.90;;;;;;6332714;28;20217;-71
2021/09/18 16:00:03;;;;;;;4.87;4.00;;;15.10;99.90;;;;;;6318228;28;20296;-71
2021/09/18 16:03:05;;;;;;;4.17;3.80;;;15.10;99.90;;;;;;6373016;27;20198;-71
2021/09/18 16:06:09;;;;;;;4.47;3.90;;;15.00;99.90;;;;;;6338589;28;20229;-71